Time;durP1;ratioP1;P1;durP2;ratioP2;P2;SDS_P1;SDS_P2;PMS_P1;PMS_P2;Temp;Humidity;BMP_temperature;BMP_pressure;BME280_temperature;BME280_humidity;BME280_pressure;Samples;Min_cycle;Max_cycle;Signal;HPM_P1;HPM_P2
2024/03/08 00:04:30;;;;;;;16.70;12.63;;;;;;;;;;5523280;23;20496;-90
2024/03/08 00:10:40;;;;;;;17.80;12.63;;;;;;;;;;4924354;29;20632;-90
2024/03/08 00:13:16;;;;;;;18.47;12.60;;;;;;;;;;4923465;29;20477;-89
2024/03/08 00:15:53;;;;;;;15.63;12.20;;;;;;;;;;4920370;29;20472;-88
2024/03/08 00:18:24;;;;;;;16.00;12.33;;;;;;;;;;4921657;29;20475;-87
2024/03/08 00:21:02;;;;;;;17.47;12.77;;;;;;;;;;4906257;29;20443;-89
2024/03/08 00:24:09;;;;;;;16.07;12.33;;;;;;;;;;4902077;29;20440;-87
2024/03/08 00:27:20;;;;;;;15.00;11.13;;;;;;;;;;4905769;29;20498;-87
2024/03/08 00:33:53;;;;;;;16.70;11.40;;;;;;;;;;4919027;29;20402;-88
2024/03/08 00:36:36;;;;;;;16.87;12.10;;;;;;;;;;4917553;29;20448;-86
2024/03/08 00:39:37;;;;;;;19.67;14.30;;;;;;;;;;4951980;29;20453;-88
2024/03/08 00:42:28;;;;;;;20.23;12.50;;;;;;;;;;4947767;28;20413;-86
2024/03/08 00:48:43;;;;;;;19.07;13.30;;;;;;;;;;4956065;28;20598;-87
2024/03/08 00:51:52;;;;;;;18.17;12.73;;;;;;;;;;4957946;28;20959;-85
2024/03/08 00:57:18;;;;;;;16.37;11.83;;;;;;;;;;5396630;23;20900;-88
2024/03/08 01:03:34;;;;;;;20.20;13.67;;;;;;;;;;4929480;29;20414;-85
2024/03/08 01:06:21;;;;;;;22.43;13.03;;;;;;;;;;4914375;29;20474;-85
2024/03/08 01:09:31;;;;;;;17.83;13.70;;;;;;;;;;4915718;29;20482;-85
2024/03/08 01:12:07;;;;;;;17.43;13.60;;;;;;;;;;4906204;29;20462;-88
2024/03/08 01:14:58;;;;;;;18.53;12.70;;;;;;;;;;4919092;29;20479;-88
2024/03/08 01:17:36;;;;;;;20.20;13.90;;;;;;;;;;4910240;29;20794;-84
2024/03/08 01:20:21;;;;;;;19.93;12.70;;;;;;;;;;4914564;29;20441;-87
2024/03/08 01:23:00;;;;;;;14.57;9.63;;;;;;;;;;4924380;29;20460;-85
2024/03/08 01:25:41;;;;;;;18.03;12.00;;;;;;;;;;4911207;29;20485;-87
2024/03/08 01:28:34;;;;;;;19.73;12.90;;;;;;;;;;4912424;29;20534;-85
2024/03/08 01:36:56;;;;;;;17.97;12.30;;;;;;;;;;5519913;23;20508;-86
2024/03/08 01:39:42;;;;;;;20.60;13.87;;;;;;;;;;4968711;28;20472;-90
2024/03/08 01:42:48;;;;;;;;;;;;;;;;;;;;;
2024/03/08 01:45:23;;;;;;;17.90;13.70;;;;;;;;;;4973655;28;20505;-87
2024/03/08 01:48:33;;;;;;;17.60;13.33;;;;;;;;;;4971762;28;20556;-84
2024/03/08 01:51:22;;;;;;;17.13;12.60;;;;;;;;;;4972717;28;20768;-85
2024/03/08 01:54:16;;;;;;;20.83;12.37;;;;;;;;;;4972598;28;20447;-86
2024/03/08 01:56:59;;;;;;;18.83;13.13;;;;;;;;;;4966527;28;21139;-87
2024/03/08 01:59:29;;;;;;;21.77;13.43;;;;;;;;;;4981455;28;20456;-89
2024/03/08 02:02:04;;;;;;;19.40;13.50;;;;;;;;;;4958184;28;21039;-89
2024/03/08 02:04:36;;;;;;;18.30;12.93;;;;;;;;;;4964942;28;20993;-86
2024/03/08 02:07:15;;;;;;;20.73;13.80;;;;;;;;;;4965218;28;20511;-89
2024/03/08 02:09:50;;;;;;;17.40;11.70;;;;;;;;;;4965872;28;20449;-86
2024/03/08 02:12:44;;;;;;;21.93;12.43;;;;;;;;;;4966423;28;20452;-87
2024/03/08 02:15:13;;;;;;;19.67;13.33;;;;;;;;;;4964024;28;20477;-85
2024/03/08 02:17:46;;;;;;;17.00;12.97;;;;;;;;;;4968324;28;20457;-85
2024/03/08 02:20:20;;;;;;;21.37;13.13;;;;;;;;;;4967393;28;20552;-85
2024/03/08 02:23:04;;;;;;;18.93;12.47;;;;;;;;;;4965897;28;20552;-87
2024/03/08 02:25:44;;;;;;;23.10;13.27;;;;;;;;;;4930271;28;20851;-84
2024/03/08 02:28:27;;;;;;;17.37;12.07;;;;;;;;;;4964690;28;20516;-88
2024/03/08 02:31:01;;;;;;;21.57;13.43;;;;;;;;;;4958992;28;20465;-86
2024/03/08 02:33:43;;;;;;;21.23;14.23;;;;;;;;;;4964900;28;20893;-86
2024/03/08 02:39:09;;;;;;;17.13;13.23;;;;;;;;;;5098057;23;20504;-87
2024/03/08 02:41:42;;;;;;;18.37;12.83;;;;;;;;;;4966098;28;20524;-88
2024/03/08 02:44:27;;;;;;;19.03;12.57;;;;;;;;;;4967790;28;20488;-89
2024/03/08 02:46:57;;;;;;;18.57;12.90;;;;;;;;;;4967896;28;20469;-87
2024/03/08 02:49:33;;;;;;;17.93;12.93;;;;;;;;;;4963622;28;20486;-88
2024/03/08 02:52:12;;;;;;;20.80;14.10;;;;;;;;;;4944258;29;20454;-87
2024/03/08 02:54:48;;;;;;;18.77;12.90;;;;;;;;;;4944847;29;20469;-85
2024/03/08 02:57:27;;;;;;;19.33;13.10;;;;;;;;;;4958921;28;20964;-87
2024/03/08 03:00:12;;;;;;;19.67;13.03;;;;;;;;;;4944244;29;20849;-85
2024/03/08 03:02:42;;;;;;;17.50;12.60;;;;;;;;;;4942296;29;20466;-87
2024/03/08 03:05:24;;;;;;;19.17;14.23;;;;;;;;;;4943710;29;20485;-86
2024/03/08 03:07:58;;;;;;;16.80;11.83;;;;;;;;;;4945199;29;20664;-87
2024/03/08 03:10:28;;;;;;;17.97;12.23;;;;;;;;;;4945485;29;20484;-86
2024/03/08 03:12:56;;;;;;;19.07;13.10;;;;;;;;;;4944665;29;20454;-88
2024/03/08 03:15:34;;;;;;;22.43;13.60;;;;;;;;;;4948482;29;20507;-87
2024/03/08 03:18:03;;;;;;;20.67;14.10;;;;;;;;;;4981298;28;20445;-87
2024/03/08 03:20:44;;;;;;;21.20;14.40;;;;;;;;;;4963038;28;20442;-89
2024/03/08 03:23:20;;;;;;;22.67;11.83;;;;;;;;;;4976275;28;20469;-87
2024/03/08 03:25:53;;;;;;;22.20;12.97;;;;;;;;;;4957421;29;20499;-89
2024/03/08 03:28:28;;;;;;;17.73;10.83;;;;;;;;;;4954663;29;20505;-89
2024/03/08 03:31:03;;;;;;;20.07;13.30;;;;;;;;;;4952400;28;20540;-87
2024/03/08 03:34:01;;;;;;;19.03;11.70;;;;;;;;;;4947184;28;20446;-86
2024/03/08 03:36:37;;;;;;;18.10;13.07;;;;;;;;;;4945291;29;20510;-86
2024/03/08 03:39:16;;;;;;;21.23;13.73;;;;;;;;;;4946094;29;20469;-87
2024/03/08 03:41:49;;;;;;;22.73;13.90;;;;;;;;;;4945343;29;20465;-87
2024/03/08 03:44:43;;;;;;;22.10;14.53;;;;;;;;;;4944285;29;20615;-86
2024/03/08 03:47:27;;;;;;;17.40;12.07;;;;;;;;;;4948129;28;20444;-88
2024/03/08 03:50:09;;;;;;;22.23;13.40;;;;;;;;;;4951556;29;20460;-83
2024/03/08 03:52:46;;;;;;;22.67;13.43;;;;;;;;;;4957302;29;20525;-88
2024/03/08 03:55:21;;;;;;;21.00;12.70;;;;;;;;;;4958364;28;20492;-86
2024/03/08 03:58:02;;;;;;;22.30;14.00;;;;;;;;;;4959935;29;20464;-87
2024/03/08 04:00:44;;;;;;;22.10;14.73;;;;;;;;;;4944085;29;20449;-89
2024/03/08 04:03:16;;;;;;;21.10;13.07;;;;;;;;;;4957216;29;20461;-87
2024/03/08 04:05:53;;;;;;;19.53;13.97;;;;;;;;;;4955973;28;20481;-86
2024/03/08 04:08:31;;;;;;;22.47;13.90;;;;;;;;;;4951541;29;20481;-86
2024/03/08 04:11:16;;;;;;;17.10;11.20;;;;;;;;;;4965643;28;20445;-86
2024/03/08 04:14:02;;;;;;;21.87;13.03;;;;;;;;;;4949559;29;20462;-86
2024/03/08 04:16:42;;;;;;;20.13;13.33;;;;;;;;;;4952045;29;20476;-89
2024/03/08 04:19:19;;;;;;;20.33;13.90;;;;;;;;;;4951767;28;20453;-90
2024/03/08 04:21:52;;;;;;;21.03;13.43;;;;;;;;;;4959347;28;20560;-86
2024/03/08 04:24:40;;;;;;;19.30;13.70;;;;;;;;;;4943949;29;20477;-87
2024/03/08 04:27:16;;;;;;;19.43;13.50;;;;;;;;;;4952502;29;20433;-89
2024/03/08 04:29:47;;;;;;;21.60;12.17;;;;;;;;;;4963391;28;20441;-91
2024/03/08 04:32:29;;;;;;;20.00;11.27;;;;;;;;;;4963217;28;20485;-88
2024/03/08 04:35:20;;;;;;;20.07;13.43;;;;;;;;;;4944906;29;20469;-86
2024/03/08 04:37:47;;;;;;;20.70;12.77;;;;;;;;;;4941583;29;20569;-86
2024/03/08 04:40:24;;;;;;;20.60;12.60;;;;;;;;;;4942132;29;20814;-86
2024/03/08 04:43:03;;;;;;;22.33;13.10;;;;;;;;;;4941877;29;20516;-86
2024/03/08 04:45:34;;;;;;;21.80;14.57;;;;;;;;;;4948234;28;20560;-86
2024/03/08 04:48:08;;;;;;;19.77;13.53;;;;;;;;;;4943032;28;20485;-86
2024/03/08 04:50:41;;;;;;;19.13;12.90;;;;;;;;;;4938854;29;20465;-85
2024/03/08 04:53:14;;;;;;;19.30;14.00;;;;;;;;;;4937831;29;20465;-84
2024/03/08 04:56:06;;;;;;;19.10;12.73;;;;;;;;;;4938921;29;20454;-85
2024/03/08 04:58:50;;;;;;;20.17;13.13;;;;;;;;;;4938247;29;20468;-88
2024/03/08 05:01:33;;;;;;;23.17;13.60;;;;;;;;;;4941741;29;20457;-86
2024/03/08 05:04:14;;;;;;;23.37;12.70;;;;;;;;;;4944249;29;20516;-86
2024/03/08 05:06:58;;;;;;;16.90;12.57;;;;;;;;;;4943734;29;20518;-85
2024/03/08 05:09:52;;;;;;;21.03;14.67;;;;;;;;;;4939630;29;20579;-89
2024/03/08 05:12:38;;;;;;;18.70;12.80;;;;;;;;;;4944161;28;20509;-86
2024/03/08 05:15:27;;;;;;;21.40;13.07;;;;;;;;;;4941237;29;21030;-86
2024/03/08 05:18:05;;;;;;;20.30;12.83;;;;;;;;;;4945486;29;20472;-85
2024/03/08 05:20:40;;;;;;;19.90;12.20;;;;;;;;;;4957269;28;20536;-86
2024/03/08 05:23:12;;;;;;;21.57;13.83;;;;;;;;;;4928615;29;20450;-85
2024/03/08 05:25:41;;;;;;;18.70;12.50;;;;;;;;;;4953999;28;20477;-89
2024/03/08 05:28:13;;;;;;;21.60;13.70;;;;;;;;;;4959301;28;20493;-91
2024/03/08 05:30:56;;;;;;;22.50;13.97;;;;;;;;;;4959356;28;20477;-88
2024/03/08 05:33:30;;;;;;;17.17;12.90;;;;;;;;;;4960451;28;20457;-88
2024/03/08 05:36:11;;;;;;;23.23;13.13;;;;;;;;;;4959120;28;20483;-87
2024/03/08 05:38:50;;;;;;;20.77;13.80;;;;;;;;;;4944976;29;20479;-88
2024/03/08 05:41:20;;;;;;;24.57;14.03;;;;;;;;;;4943096;29;20486;-86
2024/03/08 05:44:08;;;;;;;21.50;13.40;;;;;;;;;;4943590;29;21395;-84
2024/03/08 05:46:46;;;;;;;22.87;13.43;;;;;;;;;;4943164;29;20464;-87
2024/03/08 05:49:22;;;;;;;25.03;15.27;;;;;;;;;;4942439;29;20488;-84
2024/03/08 05:52:01;;;;;;;23.10;13.80;;;;;;;;;;4952594;29;20855;-87
2024/03/08 05:54:38;;;;;;;23.50;12.80;;;;;;;;;;4948658;29;20461;-86
2024/03/08 05:57:29;;;;;;;25.13;15.03;;;;;;;;;;4953953;28;20422;-85
2024/03/08 06:00:24;;;;;;;23.10;13.53;;;;;;;;;;4935197;29;20420;-87
2024/03/08 06:03:01;;;;;;;25.73;14.87;;;;;;;;;;4949522;29;20536;-87
2024/03/08 06:05:42;;;;;;;24.40;14.03;;;;;;;;;;4946480;29;21294;-85
2024/03/08 06:08:39;;;;;;;28.13;15.00;;;;;;;;;;4931110;28;20554;-85
2024/03/08 06:11:23;;;;;;;22.37;14.50;;;;;;;;;;4948333;29;20523;-85
2024/03/08 06:14:18;;;;;;;24.07;15.07;;;;;;;;;;4963975;28;20461;-87
2024/03/08 06:16:52;;;;;;;23.30;13.77;;;;;;;;;;4945252;29;20469;-85
2024/03/08 06:19:28;;;;;;;35.43;15.80;;;;;;;;;;4962605;28;20804;-86
2024/03/08 06:22:03;;;;;;;20.40;13.23;;;;;;;;;;4950897;29;20473;-86
2024/03/08 06:24:44;;;;;;;24.27;14.40;;;;;;;;;;4945546;29;20465;-87
2024/03/08 06:27:31;;;;;;;22.43;15.13;;;;;;;;;;4958429;28;20433;-86
2024/03/08 06:30:21;;;;;;;24.93;13.43;;;;;;;;;;4948396;29;20437;-87
2024/03/08 06:33:11;;;;;;;24.47;14.47;;;;;;;;;;4951974;29;20489;-90
2024/03/08 06:35:48;;;;;;;23.80;14.57;;;;;;;;;;4960973;28;20474;-91
2024/03/08 06:38:20;;;;;;;22.30;13.57;;;;;;;;;;5066400;23;20558;-89
2024/03/08 06:41:15;;;;;;;21.07;13.87;;;;;;;;;;5409491;23;20474;-87
2024/03/08 06:44:24;;;;;;;24.73;16.10;;;;;;;;;;4992958;28;20419;-85
2024/03/08 06:46:58;;;;;;;20.43;14.63;;;;;;;;;;4974002;28;20452;-86
2024/03/08 06:49:51;;;;;;;19.83;13.80;;;;;;;;;;4968008;28;20745;-88
2024/03/08 06:52:40;;;;;;;23.50;12.97;;;;;;;;;;4966461;28;20457;-87
2024/03/08 06:55:33;;;;;;;23.57;14.27;;;;;;;;;;4969787;28;20459;-88
2024/03/08 06:58:21;;;;;;;22.73;12.67;;;;;;;;;;4969547;28;20433;-87
2024/03/08 07:01:34;;;;;;;23.70;15.20;;;;;;;;;;4974703;28;20446;-85
2024/03/08 07:04:16;;;;;;;21.70;14.43;;;;;;;;;;4973571;28;20455;-87
2024/03/08 07:07:03;;;;;;;22.20;11.90;;;;;;;;;;4980940;28;20459;-90
2024/03/08 07:09:49;;;;;;;23.40;15.40;;;;;;;;;;4966201;28;20479;-88
2024/03/08 07:12:28;;;;;;;24.33;15.57;;;;;;;;;;4974022;28;20457;-86
2024/03/08 07:15:05;;;;;;;21.80;14.20;;;;;;;;;;4970760;28;20487;-89
2024/03/08 07:17:52;;;;;;;30.10;15.53;;;;;;;;;;4967924;28;20433;-88
2024/03/08 07:21:02;;;;;;;20.73;14.27;;;;;;;;;;4967795;28;20425;-89
2024/03/08 07:29:43;;;;;;;24.73;16.30;;;;;;;;;;5212162;23;20500;-90
2024/03/08 07:35:50;;;;;;;19.13;11.63;;;;;;;;;;4969378;28;20454;-91
2024/03/08 07:41:16;;;;;;;20.33;13.43;;;;;;;;;;5324309;23;20499;-90
2024/03/08 07:44:03;;;;;;;22.97;14.20;;;;;;;;;;4986866;28;20448;-88
2024/03/08 07:47:18;;;;;;;19.73;14.30;;;;;;;;;;4977176;28;20448;-89
2024/03/08 07:50:08;;;;;;;17.20;12.43;;;;;;;;;;4976925;28;20496;-89
2024/03/08 07:53:01;;;;;;;19.10;14.10;;;;;;;;;;5568763;23;20499;-89
2024/03/08 07:55:46;;;;;;;16.90;14.10;;;;;;;;;;4975739;28;20461;-88
2024/03/08 08:01:22;;;;;;;19.87;13.17;;;;;;;;;;5768021;23;20551;-88
2024/03/08 08:04:38;;;;;;;16.23;13.03;;;;;;;;;;4988481;28;20415;-89
2024/03/08 08:10:15;;;;;;;21.23;13.43;;;;;;;;;;5400058;23;20247;-89
2024/03/08 08:21:03;;;;;;;20.80;13.73;;;;;;;;;;5210008;23;20580;-87
2024/03/08 08:24:18;;;;;;;22.97;13.67;;;;;;;;;;4963605;29;20430;-87
2024/03/08 08:31:20;;;;;;;18.60;13.17;;;;;;;;;;4942347;29;20528;-86
2024/03/08 08:47:33;;;;;;;20.90;14.00;;;;;;;;;;4843997;29;20444;-87
2024/03/08 08:50:30;;;;;;;19.37;11.50;;;;;;;;;;4865485;29;20945;-88
2024/03/08 08:53:50;;;;;;;19.23;12.37;;;;;;;;;;4903113;29;20449;-86
2024/03/08 08:56:49;;;;;;;13.90;9.60;;;;;;;;;;4902704;29;20633;-86
2024/03/08 08:59:42;;;;;;;18.63;11.33;;;;;;;;;;4889867;29;20480;-88
2024/03/08 09:02:34;;;;;;;18.27;12.23;;;;;;;;;;4920548;29;20443;-87
2024/03/08 09:15:16;;;;;;;17.50;11.33;;;;;;;;;;5617691;23;20505;-87
2024/03/08 09:21:39;;;;;;;14.43;10.40;;;;;;;;;;4950921;29;20421;-88
2024/03/08 09:24:28;;;;;;;19.93;12.70;;;;;;;;;;4948136;29;20450;-86
2024/03/08 09:27:10;;;;;;;12.30;9.73;;;;;;;;;;4946605;28;20497;-86
2024/03/08 09:30:01;;;;;;;16.00;9.60;;;;;;;;;;4942435;29;20870;-87
2024/03/08 09:32:43;;;;;;;18.73;12.10;;;;;;;;;;4945702;29;20461;-86
2024/03/08 09:35:15;;;;;;;15.33;10.80;;;;;;;;;;4947511;29;20970;-85
2024/03/08 09:41:20;;;;;;;16.77;12.13;;;;;;;;;;4957892;29;20441;-91
2024/03/08 09:44:01;;;;;;;12.40;7.73;;;;;;;;;;4900856;29;20420;-86
2024/03/08 09:47:43;;;;;;;11.87;7.90;;;;;;;;;;5047716;23;20495;-86
2024/03/08 09:50:30;;;;;;;18.87;13.67;;;;;;;;;;4992541;28;20439;-88
2024/03/08 09:53:18;;;;;;;9.07;7.67;;;;;;;;;;4990085;28;20447;-86
2024/03/08 09:56:00;;;;;;;15.10;8.80;;;;;;;;;;4989029;28;21076;-88
2024/03/08 09:58:53;;;;;;;13.33;8.20;;;;;;;;;;4986594;28;20520;-87
2024/03/08 10:01:41;;;;;;;11.63;8.20;;;;;;;;;;4997035;28;20459;-91
2024/03/08 10:04:25;;;;;;;13.80;10.00;;;;;;;;;;5142697;23;20489;-88
2024/03/08 10:07:22;;;;;;;12.10;8.57;;;;;;;;;;4943532;29;20442;-87
2024/03/08 10:10:25;;;;;;;12.17;8.27;;;;;;;;;;4942674;29;20481;-87
2024/03/08 10:13:01;;;;;;;11.70;9.80;;;;;;;;;;4944368;29;20461;-90
2024/03/08 10:15:32;;;;;;;10.87;7.93;;;;;;;;;;4959479;28;20514;-88
2024/03/08 10:18:19;;;;;;;9.00;6.27;;;;;;;;;;4905653;29;20455;-91
2024/03/08 10:21:06;;;;;;;10.40;7.47;;;;;;;;;;4924911;29;20462;-89
2024/03/08 10:23:43;;;;;;;8.87;7.73;;;;;;;;;;4954801;28;20492;-85
2024/03/08 10:26:27;;;;;;;11.37;8.30;;;;;;;;;;4933294;29;20489;-87
2024/03/08 10:29:08;;;;;;;8.80;6.33;;;;;;;;;;4949247;28;20485;-90
2024/03/08 10:31:46;;;;;;;12.23;8.87;;;;;;;;;;5041708;23;20489;-89
2024/03/08 10:34:19;;;;;;;8.00;6.60;;;;;;;;;;4967389;28;20440;-90
2024/03/08 10:37:05;;;;;;;8.13;5.40;;;;;;;;;;4958111;28;20492;-88
2024/03/08 10:39:37;;;;;;;7.30;5.60;;;;;;;;;;4956130;28;20450;-89
2024/03/08 10:42:24;;;;;;;7.07;6.23;;;;;;;;;;4932130;29;20422;-86
2024/03/08 10:59:03;;;;;;;8.73;6.33;;;;;;;;;;4959159;28;20469;-86
2024/03/08 11:01:49;;;;;;;10.10;7.50;;;;;;;;;;4926613;29;20450;-90
2024/03/08 11:04:22;;;;;;;9.00;5.80;;;;;;;;;;4919132;29;20450;-87
2024/03/08 11:07:22;;;;;;;7.17;5.27;;;;;;;;;;4916579;29;20421;-88
2024/03/08 11:10:16;;;;;;;9.60;6.20;;;;;;;;;;4920016;29;20552;-88
2024/03/08 11:13:27;;;;;;;8.57;6.20;;;;;;;;;;4924567;29;20469;-88
2024/03/08 11:16:12;;;;;;;11.50;6.13;;;;;;;;;;4873691;29;20481;-89
2024/03/08 11:19:18;;;;;;;9.57;7.57;;;;;;;;;;4872992;29;20445;-89
2024/03/08 11:22:03;;;;;;;9.67;7.50;;;;;;;;;;4874129;29;20476;-89
2024/03/08 11:24:45;;;;;;;9.63;7.70;;;;;;;;;;4873093;29;20465;-87
2024/03/08 11:28:26;;;;;;;8.17;5.83;;;;;;;;;;5114984;27;20527;-88
2024/03/08 11:31:10;;;;;;;7.70;6.60;;;;;;;;;;5115544;28;20430;-88
2024/03/08 11:33:54;;;;;;;9.37;6.90;;;;;;;;;;5116982;28;20438;-87
2024/03/08 11:36:25;;;;;;;10.00;7.27;;;;;;;;;;5095624;28;20478;-87
2024/03/08 11:39:14;;;;;;;6.10;5.20;;;;;;;;;;5095903;28;20443;-88
2024/03/08 11:46:11;;;;;;;;;;;;;;;;;;;;;
2024/03/08 11:52:40;;;;;;;10.97;8.63;;;;;;;;;;5052821;28;20428;-90
2024/03/08 11:58:20;;;;;;;;;;;;;;;;;;;;;
2024/03/08 12:06:47;;;;;;;9.70;7.00;;;;;;;;;;5154617;22;21345;-89
2024/03/08 12:09:37;;;;;;;11.30;6.67;;;;;;;;;;5043684;28;20445;-88
2024/03/08 12:12:40;;;;;;;11.43;7.00;;;;;;;;;;5029825;28;20458;-88
2024/03/08 12:15:11;;;;;;;7.37;6.33;;;;;;;;;;5034357;28;20790;-88
2024/03/08 12:17:58;;;;;;;7.50;6.10;;;;;;;;;;5037463;28;20434;-85
2024/03/08 12:20:49;;;;;;;10.13;6.10;;;;;;;;;;5036276;28;20496;-86
2024/03/08 12:23:24;;;;;;;11.10;8.37;;;;;;;;;;5038139;28;20512;-87
2024/03/08 12:26:25;;;;;;;8.20;6.60;;;;;;;;;;5032745;28;20477;-88
2024/03/08 12:29:20;;;;;;;10.00;7.30;;;;;;;;;;5034529;28;20458;-87
2024/03/08 12:32:07;;;;;;;7.77;5.50;;;;;;;;;;5034363;28;20481;-88
2024/03/08 12:34:40;;;;;;;10.30;7.80;;;;;;;;;;5039561;28;20465;-87
2024/03/08 12:37:23;;;;;;;10.00;8.10;;;;;;;;;;5035310;28;20461;-89
2024/03/08 12:40:41;;;;;;;9.07;7.10;;;;;;;;;;5022844;28;20445;-88
2024/03/08 12:43:22;;;;;;;7.73;6.00;;;;;;;;;;5025994;28;20481;-87
2024/03/08 12:46:05;;;;;;;5.53;5.00;;;;;;;;;;5026372;28;20494;-88
2024/03/08 12:48:41;;;;;;;8.03;6.67;;;;;;;;;;5025244;28;20423;-88
2024/03/08 12:51:18;;;;;;;8.87;7.07;;;;;;;;;;5022791;28;20493;-86
2024/03/08 12:53:55;;;;;;;9.77;6.40;;;;;;;;;;5019680;28;20451;-87
2024/03/08 12:56:30;;;;;;;11.87;8.53;;;;;;;;;;5017707;28;21026;-89
2024/03/08 12:59:10;;;;;;;8.30;7.03;;;;;;;;;;5018129;28;20455;-90
2024/03/08 13:01:40;;;;;;;11.63;8.07;;;;;;;;;;5018497;28;20474;-88
2024/03/08 13:04:22;;;;;;;8.80;7.40;;;;;;;;;;5019617;28;20446;-90
2024/03/08 13:06:54;;;;;;;7.10;5.83;;;;;;;;;;5022270;28;20470;-88
2024/03/08 13:09:38;;;;;;;11.20;6.70;;;;;;;;;;5027963;28;20466;-87
2024/03/08 13:12:13;;;;;;;8.67;6.73;;;;;;;;;;5022794;28;20489;-88
2024/03/08 13:14:43;;;;;;;9.73;7.60;;;;;;;;;;5025744;28;20489;-90
2024/03/08 13:17:14;;;;;;;9.40;6.00;;;;;;;;;;5032276;28;20454;-86
2024/03/08 13:20:15;;;;;;;;;;;;;;;;;;;;;
2024/03/08 13:23:04;;;;;;;8.20;6.67;;;;;;;;;;5043265;28;20430;-90
2024/03/08 13:25:41;;;;;;;8.50;7.30;;;;;;;;;;5029905;28;20471;-88
2024/03/08 13:28:36;;;;;;;8.70;6.87;;;;;;;;;;5032220;28;20720;-86
2024/03/08 13:31:27;;;;;;;12.87;6.80;;;;;;;;;;5032123;28;20467;-87
2024/03/08 13:34:11;;;;;;;6.80;5.83;;;;;;;;;;5031435;28;20441;-90
2024/03/08 13:36:46;;;;;;;10.10;7.70;;;;;;;;;;5029574;28;20485;-91
2024/03/08 13:39:19;;;;;;;9.40;6.80;;;;;;;;;;5031945;28;20451;-91
2024/03/08 13:42:06;;;;;;;7.10;6.40;;;;;;;;;;5031833;28;20443;-93
2024/03/08 13:44:37;;;;;;;8.17;6.93;;;;;;;;;;5032079;28;21193;-90
2024/03/08 13:47:23;;;;;;;7.73;5.90;;;;;;;;;;5031777;28;20466;-90
2024/03/08 13:50:07;;;;;;;8.73;6.73;;;;;;;;;;5032312;28;20489;-89
2024/03/08 13:52:53;;;;;;;7.90;6.60;;;;;;;;;;5032252;28;20468;-89
2024/03/08 13:55:34;;;;;;;7.93;7.07;;;;;;;;;;5030463;28;20465;-90
2024/03/08 13:58:13;;;;;;;9.93;6.80;;;;;;;;;;5026229;28;20442;-90
2024/03/08 14:03:26;;;;;;;8.63;6.70;;;;;;;;;;5771929;22;20674;-90
2024/03/08 14:05:55;;;;;;;10.13;6.80;;;;;;;;;;5049266;28;20461;-91
2024/03/08 14:08:40;;;;;;;8.30;6.73;;;;;;;;;;5046089;28;20483;-91
2024/03/08 14:11:12;;;;;;;7.47;6.30;;;;;;;;;;5047663;28;20468;-88
2024/03/08 14:13:53;;;;;;;9.57;7.27;;;;;;;;;;5045195;28;20516;-92
2024/03/08 14:16:28;;;;;;;7.20;6.20;;;;;;;;;;5047812;28;20473;-89
2024/03/08 14:19:15;;;;;;;10.60;7.13;;;;;;;;;;5036264;28;20470;-88
2024/03/08 14:21:53;;;;;;;7.57;5.83;;;;;;;;;;5258691;22;20492;-88
2024/03/08 14:24:37;;;;;;;8.47;6.23;;;;;;;;;;5004266;28;20488;-89
2024/03/08 14:27:09;;;;;;;7.67;6.07;;;;;;;;;;4990581;28;20484;-90
2024/03/08 14:29:51;;;;;;;7.50;6.20;;;;;;;;;;4997348;28;20421;-87
2024/03/08 14:32:24;;;;;;;7.90;5.67;;;;;;;;;;5000743;28;20456;-91
2024/03/08 14:34:59;;;;;;;10.80;7.50;;;;;;;;;;4985896;28;20465;-88
2024/03/08 14:37:29;;;;;;;9.33;7.10;;;;;;;;;;5001649;28;20484;-88
2024/03/08 14:40:14;;;;;;;8.50;7.40;;;;;;;;;;4989970;28;20448;-91
2024/03/08 14:42:49;;;;;;;9.13;6.70;;;;;;;;;;4985252;28;20456;-89
2024/03/08 14:45:30;;;;;;;9.00;6.73;;;;;;;;;;4989988;28;20452;-87
2024/03/08 14:48:21;;;;;;;11.73;7.07;;;;;;;;;;5001630;28;20438;-89
2024/03/08 14:51:03;;;;;;;9.47;7.30;;;;;;;;;;4988508;28;20452;-91
2024/03/08 14:53:57;;;;;;;10.13;8.27;;;;;;;;;;4985403;28;20460;-87
2024/03/08 14:56:27;;;;;;;10.13;8.40;;;;;;;;;;4980569;28;20484;-90
2024/03/08 14:59:13;;;;;;;8.37;7.53;;;;;;;;;;4992327;28;20504;-88
2024/03/08 15:01:42;;;;;;;9.50;6.57;;;;;;;;;;4992482;28;20472;-89
2024/03/08 15:04:18;;;;;;;9.70;7.37;;;;;;;;;;4980751;28;20471;-90
2024/03/08 15:06:48;;;;;;;8.70;6.23;;;;;;;;;;4996854;28;20571;-89
2024/03/08 15:09:18;;;;;;;9.30;6.80;;;;;;;;;;4992144;28;20475;-86
2024/03/08 15:12:02;;;;;;;9.63;7.30;;;;;;;;;;4988330;28;20436;-91
2024/03/08 15:14:44;;;;;;;9.30;7.40;;;;;;;;;;4991571;28;20484;-89
2024/03/08 15:17:20;;;;;;;11.17;6.53;;;;;;;;;;4991623;28;20492;-90
2024/03/08 15:19:56;;;;;;;11.93;8.30;;;;;;;;;;4989968;28;20475;-88
2024/03/08 15:22:28;;;;;;;10.00;5.90;;;;;;;;;;4996901;28;20511;-87
2024/03/08 15:25:14;;;;;;;10.80;6.40;;;;;;;;;;4980584;28;20500;-89
2024/03/08 15:27:48;;;;;;;11.10;7.07;;;;;;;;;;4991236;28;20491;-87
2024/03/08 15:30:26;;;;;;;10.83;6.57;;;;;;;;;;4987344;28;20483;-89
2024/03/08 15:32:56;;;;;;;10.40;7.10;;;;;;;;;;4991629;28;20478;-87
2024/03/08 15:35:25;;;;;;;6.93;5.13;;;;;;;;;;4978037;28;20523;-86
2024/03/08 15:37:57;;;;;;;7.40;6.13;;;;;;;;;;5002670;28;20467;-90
2024/03/08 15:40:30;;;;;;;6.70;4.43;;;;;;;;;;4995423;28;20463;-87
2024/03/08 15:43:00;;;;;;;6.47;4.87;;;;;;;;;;4984384;28;20465;-86
2024/03/08 15:45:44;;;;;;;8.67;5.50;;;;;;;;;;4993310;28;20425;-89
2024/03/08 15:50:54;;;;;;;7.67;6.50;;;;;;;;;;5153058;23;20484;-90
2024/03/08 15:53:55;;;;;;;6.57;5.87;;;;;;;;;;5032128;27;2041918;-91
2024/03/08 15:56:31;;;;;;;7.47;6.07;;;;;;;;;;5073557;28;20222;-91
2024/03/08 15:59:10;;;;;;;8.57;6.40;;;;;;;;;;5053514;28;20449;-90
2024/03/08 16:01:52;;;;;;;7.70;5.73;;;;;;;;;;5045717;28;20460;-89
2024/03/08 16:06:58;;;;;;;8.33;6.77;;;;;;;;;;5367239;22;20511;-91
2024/03/08 16:09:30;;;;;;;8.97;6.63;;;;;;;;;;5052687;28;20452;-91
2024/03/08 16:12:18;;;;;;;7.67;5.73;;;;;;;;;;5290697;22;20502;-91
2024/03/08 16:15:01;;;;;;;8.10;5.70;;;;;;;;;;5018710;28;20465;-90
2024/03/08 16:17:45;;;;;;;7.80;6.03;;;;;;;;;;5029919;28;20437;-91
2024/03/08 16:20:16;;;;;;;7.57;6.40;;;;;;;;;;4989720;28;20470;-85
2024/03/08 16:22:51;;;;;;;7.10;5.80;;;;;;;;;;5020276;28;20450;-87
2024/03/08 16:25:38;;;;;;;10.00;7.10;;;;;;;;;;5012949;28;20470;-86
2024/03/08 16:28:13;;;;;;;8.73;6.93;;;;;;;;;;4998295;28;20488;-88
2024/03/08 16:30:55;;;;;;;9.47;7.80;;;;;;;;;;5024329;28;20411;-91
2024/03/08 16:33:23;;;;;;;11.07;7.83;;;;;;;;;;5028760;28;20466;-90
2024/03/08 16:35:54;;;;;;;10.50;7.80;;;;;;;;;;5012881;28;20454;-90
2024/03/08 16:38:23;;;;;;;11.63;7.77;;;;;;;;;;5021411;28;20537;-86
2024/03/08 16:41:00;;;;;;;9.33;7.67;;;;;;;;;;5022510;28;20584;-90
2024/03/08 16:43:36;;;;;;;8.53;6.77;;;;;;;;;;5021905;28;21521;-89
2024/03/08 16:46:04;;;;;;;10.50;7.07;;;;;;;;;;5014138;28;20490;-89
2024/03/08 16:48:40;;;;;;;11.60;6.60;;;;;;;;;;5018342;28;20454;-87
2024/03/08 16:51:12;;;;;;;9.77;7.00;;;;;;;;;;5019782;28;20452;-87
2024/03/08 16:54:23;;;;;;;10.80;7.87;;;;;;;;;;5080831;28;21621;-90
2024/03/08 16:57:07;;;;;;;12.33;7.87;;;;;;;;;;5084665;28;20423;-90
2024/03/08 16:59:37;;;;;;;9.67;8.03;;;;;;;;;;5084239;28;21091;-89
2024/03/08 17:02:43;;;;;;;11.43;7.80;;;;;;;;;;5072970;28;20517;-89
2024/03/08 17:05:19;;;;;;;13.60;6.87;;;;;;;;;;5075722;28;20708;-89
2024/03/08 17:08:06;;;;;;;11.57;7.53;;;;;;;;;;5075467;28;20804;-89
2024/03/08 17:10:55;;;;;;;10.00;7.90;;;;;;;;;;5078762;28;20432;-88
2024/03/08 17:13:47;;;;;;;11.50;7.70;;;;;;;;;;5083698;28;20531;-88
2024/03/08 17:16:40;;;;;;;11.30;7.23;;;;;;;;;;5072938;28;20434;-88
2024/03/08 17:19:38;;;;;;;13.00;8.70;;;;;;;;;;5085787;28;20452;-90
2024/03/08 17:22:15;;;;;;;10.57;7.90;;;;;;;;;;5058814;28;20472;-87
2024/03/08 17:24:45;;;;;;;8.60;6.43;;;;;;;;;;5078368;28;20455;-87
2024/03/08 17:27:31;;;;;;;10.77;9.00;;;;;;;;;;5073915;28;20458;-89
2024/03/08 17:30:09;;;;;;;8.30;6.67;;;;;;;;;;5090478;28;20559;-91
2024/03/08 17:32:56;;;;;;;11.90;8.57;;;;;;;;;;5083538;28;20471;-90
2024/03/08 17:35:28;;;;;;;13.10;8.60;;;;;;;;;;5083829;28;20529;-89
2024/03/08 17:38:13;;;;;;;10.30;7.00;;;;;;;;;;5077692;28;20503;-88
2024/03/08 17:40:55;;;;;;;13.03;8.77;;;;;;;;;;5078388;28;20423;-90
2024/03/08 17:43:30;;;;;;;12.03;8.73;;;;;;;;;;5081189;28;20451;-89
2024/03/08 17:46:20;;;;;;;12.57;8.53;;;;;;;;;;5069507;28;20525;-89
2024/03/08 17:49:02;;;;;;;12.97;8.27;;;;;;;;;;5075489;28;21082;-88
2024/03/08 17:51:42;;;;;;;14.00;8.40;;;;;;;;;;5079558;28;20531;-89
2024/03/08 17:54:23;;;;;;;12.37;7.00;;;;;;;;;;5068453;28;20574;-87
2024/03/08 17:57:07;;;;;;;13.17;8.73;;;;;;;;;;5068374;28;20456;-86
2024/03/08 18:00:10;;;;;;;12.27;7.90;;;;;;;;;;5073458;28;20515;-88
2024/03/08 18:02:57;;;;;;;14.83;9.10;;;;;;;;;;5068180;28;20449;-89
2024/03/08 18:05:43;;;;;;;10.80;8.70;;;;;;;;;;5054421;28;20475;-88
2024/03/08 18:11:58;;;;;;;15.27;9.23;;;;;;;;;;5021765;28;20415;-88
2024/03/08 18:14:32;;;;;;;12.90;8.80;;;;;;;;;;5006750;28;20459;-90